sensor_id;sensor_type;location;lat;lon;timestamp;pressure;altitude;pressure_sealevel;temperature;humidity
53659;BME280;41524;35.624;139.698;2023-02-08T00:00:22;101483.00;;;6.45;54.64
53659;BME280;41524;35.624;139.698;2023-02-08T00:05:18;101482.00;;;8.25;50.33
53659;BME280;41524;35.624;139.698;2023-02-08T00:10:15;101489.00;;;6.20;53.98
53659;BME280;41524;35.624;139.698;2023-02-08T00:15:11;101493.00;;;6.83;54.49
53659;BME280;41524;35.624;139.698;2023-02-08T00:20:11;101505.00;;;6.84;54.41
53659;BME280;41524;35.624;139.698;2023-02-08T00:25:16;101512.00;;;7.24;52.59
53659;BME280;41524;35.624;139.698;2023-02-08T00:30:15;101511.00;;;8.95;50.42
53659;BME280;41524;35.624;139.698;2023-02-08T00:35:11;101511.00;;;10.62;46.77
53659;BME280;41524;35.624;139.698;2023-02-08T00:40:12;101521.00;;;8.84;49.33
53659;BME280;41524;35.624;139.698;2023-02-08T00:45:11;101524.00;;;9.62;48.51
53659;BME280;41524;35.624;139.698;2023-02-08T00:50:15;101527.00;;;8.20;49.86
53659;BME280;41524;35.624;139.698;2023-02-08T00:55:12;101529.00;;;9.64;47.78
53659;BME280;41524;35.624;139.698;2023-02-08T01:00:16;101529.00;;;7.56;49.84
53659;BME280;41524;35.624;139.698;2023-02-08T01:05:16;101529.00;;;9.38;46.28
53659;BME280;41524;35.624;139.698;2023-02-08T01:10:11;101523.00;;;7.00;49.76
53659;BME280;41524;35.624;139.698;2023-02-08T01:15:16;101525.00;;;6.73;49.20
53659;BME280;41524;35.624;139.698;2023-02-08T01:20:12;101517.00;;;9.76;45.94
53659;BME280;41524;35.624;139.698;2023-02-08T01:25:11;101514.00;;;10.37;43.44
53659;BME280;41524;35.624;139.698;2023-02-08T01:30:12;101518.00;;;8.72;45.98
53659;BME280;41524;35.624;139.698;2023-02-08T01:35:11;101524.00;;;8.51;45.21
53659;BME280;41524;35.624;139.698;2023-02-08T01:40:12;101520.00;;;9.24;44.00
53659;BME280;41524;35.624;139.698;2023-02-08T01:45:30;101513.00;;;8.59;44.23
53659;BME280;41524;35.624;139.698;2023-02-08T01:50:11;101508.00;;;9.77;42.76
53659;BME280;41524;35.624;139.698;2023-02-08T01:55:16;101504.00;;;8.80;43.98
53659;BME280;41524;35.624;139.698;2023-02-08T02:00:15;101494.00;;;9.32;42.67
53659;BME280;41524;35.624;139.698;2023-02-08T02:05:16;101484.00;;;8.47;43.44
53659;BME280;41524;35.624;139.698;2023-02-08T02:10:15;101485.00;;;7.93;46.06
53659;BME280;41524;35.624;139.698;2023-02-08T02:15:14;101478.00;;;6.79;46.03
53659;BME280;41524;35.624;139.698;2023-02-08T02:20:21;101467.00;;;8.03;44.59
53659;BME280;41524;35.624;139.698;2023-02-08T02:25:28;101448.00;;;8.60;43.39
53659;BME280;41524;35.624;139.698;2023-02-08T02:30:43;101433.00;;;6.96;45.48
53659;BME280;41524;35.624;139.698;2023-02-08T02:35:17;101417.00;;;7.55;44.64
53659;BME280;41524;35.624;139.698;2023-02-08T02:40:17;101403.00;;;9.38;42.52
53659;BME280;41524;35.624;139.698;2023-02-08T02:45:17;101396.00;;;9.32;41.55
53659;BME280;41524;35.624;139.698;2023-02-08T02:50:21;101393.00;;;8.29;42.64
53659;BME280;41524;35.624;139.698;2023-02-08T02:55:15;101387.00;;;9.32;41.62
53659;BME280;41524;35.624;139.698;2023-02-08T03:00:17;101384.00;;;8.12;42.70
53659;BME280;41524;35.624;139.698;2023-02-08T03:05:15;101370.00;;;9.75;39.48
53659;BME280;41524;35.624;139.698;2023-02-08T03:10:26;101375.00;;;7.93;42.24
53659;BME280;41524;35.624;139.698;2023-02-08T03:15:19;101368.00;;;8.28;41.86
53659;BME280;41524;35.624;139.698;2023-02-08T03:20:14;101369.00;;;8.96;41.18
53659;BME280;41524;35.624;139.698;2023-02-08T03:25:16;101361.00;;;9.34;40.81
53659;BME280;41524;35.624;139.698;2023-02-08T03:30:14;101358.00;;;8.11;42.45
53659;BME280;41524;35.624;139.698;2023-02-08T03:35:16;101353.00;;;8.60;40.66
53659;BME280;41524;35.624;139.698;2023-02-08T03:40:15;101343.00;;;8.65;41.05
53659;BME280;41524;35.624;139.698;2023-02-08T03:45:15;101338.00;;;7.75;41.56
53659;BME280;41524;35.624;139.698;2023-02-08T03:50:13;101320.00;;;9.55;40.19
53659;BME280;41524;35.624;139.698;2023-02-08T03:55:14;101321.00;;;7.81;42.02
53659;BME280;41524;35.624;139.698;2023-02-08T04:00:18;101314.00;;;9.46;40.37
53659;BME280;41524;35.624;139.698;2023-02-08T04:05:11;101314.00;;;7.98;42.01
53659;BME280;41524;35.624;139.698;2023-02-08T04:10:11;101310.00;;;8.31;42.58
53659;BME280;41524;35.624;139.698;2023-02-08T04:15:12;101314.00;;;8.31;41.60
53659;BME280;41524;35.624;139.698;2023-02-08T04:20:11;101304.00;;;8.99;40.75
53659;BME280;41524;35.624;139.698;2023-02-08T04:25:16;101306.00;;;8.28;41.13
53659;BME280;41524;35.624;139.698;2023-02-08T04:30:14;101286.00;;;8.71;40.04
53659;BME280;41524;35.624;139.698;2023-02-08T04:35:11;101285.00;;;8.53;40.18
53659;BME280;41524;35.624;139.698;2023-02-08T04:40:11;101291.00;;;8.61;40.90
53659;BME280;41524;35.624;139.698;2023-02-08T04:45:11;101290.00;;;8.75;40.07
53659;BME280;41524;35.624;139.698;2023-02-08T04:50:10;101301.00;;;7.42;42.74
53659;BME280;41524;35.624;139.698;2023-02-08T04:55:15;101289.00;;;8.66;39.74
53659;BME280;41524;35.624;139.698;2023-02-08T05:00:22;101288.00;;;8.24;40.72
53659;BME280;41524;35.624;139.698;2023-02-08T05:05:11;101296.00;;;8.33;40.52
53659;BME280;41524;35.624;139.698;2023-02-08T05:10:11;101292.00;;;8.74;39.65
53659;BME280;41524;35.624;139.698;2023-02-08T05:15:11;101303.00;;;8.04;40.45
53659;BME280;41524;35.624;139.698;2023-02-08T05:20:17;101304.00;;;8.36;40.23
53659;BME280;41524;35.624;139.698;2023-02-08T05:25:11;101299.00;;;8.74;40.09
53659;BME280;41524;35.624;139.698;2023-02-08T05:30:12;101305.00;;;8.40;40.59
53659;BME280;41524;35.624;139.698;2023-02-08T05:35:13;101305.00;;;8.47;40.08
53659;BME280;41524;35.624;139.698;2023-02-08T05:40:11;101307.00;;;8.24;41.58
53659;BME280;41524;35.624;139.698;2023-02-08T05:45:15;101299.00;;;9.37;39.19
53659;BME280;41524;35.624;139.698;2023-02-08T05:50:11;101313.00;;;8.59;40.24
53659;BME280;41524;35.624;139.698;2023-02-08T05:55:16;101315.00;;;8.49;40.11
53659;BME280;41524;35.624;139.698;2023-02-08T06:00:17;101314.00;;;7.87;40.53
53659;BME280;41524;35.624;139.698;2023-02-08T06:05:10;101324.00;;;8.65;39.68
53659;BME280;41524;35.624;139.698;2023-02-08T06:10:11;101336.00;;;8.07;40.14
53659;BME280;41524;35.624;139.698;2023-02-08T06:15:11;101341.00;;;8.37;39.44
53659;BME280;41524;35.624;139.698;2023-02-08T06:20:11;101350.00;;;8.63;39.34
53659;BME280;41524;35.624;139.698;2023-02-08T06:25:13;101351.00;;;8.31;39.66
53659;BME280;41524;35.624;139.698;2023-02-08T06:30:15;101356.00;;;8.35;39.57
53659;BME280;41524;35.624;139.698;2023-02-08T06:35:16;101350.00;;;8.70;39.87
53659;BME280;41524;35.624;139.698;2023-02-08T06:40:13;101344.00;;;8.67;39.36
53659;BME280;41524;35.624;139.698;2023-02-08T06:45:11;101349.00;;;8.26;39.76
53659;BME280;41524;35.624;139.698;2023-02-08T06:50:15;101353.00;;;8.19;39.95
53659;BME280;41524;35.624;139.698;2023-02-08T06:55:10;101355.00;;;7.55;41.95
53659;BME280;41524;35.624;139.698;2023-02-08T07:00:12;101360.00;;;7.67;41.42
53659;BME280;41524;35.624;139.698;2023-02-08T07:05:12;101358.00;;;8.09;41.54
53659;BME280;41524;35.624;139.698;2023-02-08T07:10:11;101365.00;;;8.93;40.54
53659;BME280;41524;35.624;139.698;2023-02-08T07:15:15;101364.00;;;8.34;41.69
53659;BME280;41524;35.624;139.698;2023-02-08T07:20:11;101369.00;;;7.79;43.50
53659;BME280;41524;35.624;139.698;2023-02-08T07:25:11;101374.00;;;7.66;44.49
53659;BME280;41524;35.624;139.698;2023-02-08T07:30:16;101384.00;;;7.33;44.35
53659;BME280;41524;35.624;139.698;2023-02-08T07:35:14;101390.00;;;7.50;43.80
53659;BME280;41524;35.624;139.698;2023-02-08T07:40:12;101405.00;;;7.50;43.68
53659;BME280;41524;35.624;139.698;2023-02-08T07:45:20;101405.00;;;7.99;42.46
53659;BME280;41524;35.624;139.698;2023-02-08T07:50:15;101418.00;;;7.63;43.67
53659;BME280;41524;35.624;139.698;2023-02-08T07:55:17;101420.00;;;7.61;44.78
53659;BME280;41524;35.624;139.698;2023-02-08T08:00:13;101424.00;;;8.23;44.53
53659;BME280;41524;35.624;139.698;2023-02-08T08:05:11;101438.00;;;7.62;43.77
53659;BME280;41524;35.624;139.698;2023-02-08T08:10:11;101452.00;;;7.93;44.63
53659;BME280;41524;35.624;139.698;2023-02-08T08:15:10;101468.00;;;7.33;44.85
53659;BME280;41524;35.624;139.698;2023-02-08T08:20:11;101475.00;;;7.61;45.99
53659;BME280;41524;35.624;139.698;2023-02-08T08:25:11;101473.00;;;7.78;45.17
53659;BME280;41524;35.624;139.698;2023-02-08T08:30:17;101483.00;;;7.90;44.97
53659;BME280;41524;35.624;139.698;2023-02-08T08:35:10;101500.00;;;7.05;46.39
53659;BME280;41524;35.624;139.698;2023-02-08T08:40:13;101506.00;;;7.22;46.25
53659;BME280;41524;35.624;139.698;2023-02-08T08:45:15;101513.00;;;7.79;45.41
53659;BME280;41524;35.624;139.698;2023-02-08T08:50:15;101516.00;;;8.93;43.29
53659;BME280;41524;35.624;139.698;2023-02-08T08:55:15;101519.00;;;7.36;44.74
53659;BME280;41524;35.624;139.698;2023-02-08T09:00:16;101523.00;;;8.50;43.09
53659;BME280;41524;35.624;139.698;2023-02-08T09:05:11;101528.00;;;8.72;43.23
53659;BME280;41524;35.624;139.698;2023-02-08T09:10:11;101532.00;;;8.28;44.24
53659;BME280;41524;35.624;139.698;2023-02-08T09:15:16;101534.00;;;8.24;44.45
53659;BME280;41524;35.624;139.698;2023-02-08T09:20:21;101545.00;;;8.40;44.00
53659;BME280;41524;35.624;139.698;2023-02-08T09:25:12;101558.00;;;8.36;42.96
53659;BME280;41524;35.624;139.698;2023-02-08T09:30:17;101569.00;;;8.45;43.59
53659;BME280;41524;35.624;139.698;2023-02-08T09:35:10;101577.00;;;7.84;47.12
53659;BME280;41524;35.624;139.698;2023-02-08T09:40:22;101585.00;;;6.96;46.99
53659;BME280;41524;35.624;139.698;2023-02-08T09:45:31;101594.00;;;8.82;45.59
53659;BME280;41524;35.624;139.698;2023-02-08T09:50:29;101602.00;;;7.51;45.82
53659;BME280;41524;35.624;139.698;2023-02-08T09:55:20;101617.00;;;8.66;43.79
53659;BME280;41524;35.624;139.698;2023-02-08T10:00:18;101629.00;;;8.48;47.19
53659;BME280;41524;35.624;139.698;2023-02-08T10:05:19;101647.00;;;8.36;47.32
53659;BME280;41524;35.624;139.698;2023-02-08T10:10:16;101663.00;;;8.09;50.08
53659;BME280;41524;35.624;139.698;2023-02-08T10:15:23;101676.00;;;7.77;52.04
53659;BME280;41524;35.624;139.698;2023-02-08T10:20:18;101687.00;;;7.52;53.91
53659;BME280;41524;35.624;139.698;2023-02-08T10:25:26;101698.00;;;6.86;56.66
53659;BME280;41524;35.624;139.698;2023-02-08T10:30:27;101705.00;;;6.67;56.48
53659;BME280;41524;35.624;139.698;2023-02-08T10:35:13;101705.00;;;5.79;58.22
53659;BME280;41524;35.624;139.698;2023-02-08T10:45:17;101707.00;;;6.90;56.97
53659;BME280;41524;35.624;139.698;2023-02-08T10:50:34;101713.00;;;6.22;57.83
53659;BME280;41524;35.624;139.698;2023-02-08T10:55:16;101711.00;;;5.40;59.59
53659;BME280;41524;35.624;139.698;2023-02-08T11:00:25;101706.00;;;6.16;59.04
53659;BME280;41524;35.624;139.698;2023-02-08T11:05:12;101718.00;;;6.21;58.40
53659;BME280;41524;35.624;139.698;2023-02-08T11:10:22;101718.00;;;5.97;59.09
53659;BME280;41524;35.624;139.698;2023-02-08T11:15:29;101719.00;;;6.50;58.13
53659;BME280;41524;35.624;139.698;2023-02-08T11:25:31;101708.00;;;6.50;59.53
53659;BME280;41524;35.624;139.698;2023-02-08T11:30:22;101705.00;;;5.63;60.53
53659;BME280;41524;35.624;139.698;2023-02-08T11:35:18;101694.00;;;6.52;56.77
53659;BME280;41524;35.624;139.698;2023-02-08T11:40:22;101694.00;;;6.72;55.69
53659;BME280;41524;35.624;139.698;2023-02-08T11:45:20;101703.00;;;6.70;56.49
53659;BME280;41524;35.624;139.698;2023-02-08T11:50:31;101707.00;;;6.79;54.08
53659;BME280;41524;35.624;139.698;2023-02-08T11:55:23;101720.00;;;6.73;54.16
53659;BME280;41524;35.624;139.698;2023-02-08T12:00:19;101719.00;;;7.27;53.35
53659;BME280;41524;35.624;139.698;2023-02-08T12:05:13;101747.00;;;6.36;56.28
53659;BME280;41524;35.624;139.698;2023-02-08T12:10:34;101739.00;;;6.71;55.23
53659;BME280;41524;35.624;139.698;2023-02-08T12:15:23;101746.00;;;6.60;55.48
53659;BME280;41524;35.624;139.698;2023-02-08T12:20:37;101749.00;;;6.14;57.53
53659;BME280;41524;35.624;139.698;2023-02-08T12:25:26;101749.00;;;7.39;55.68
53659;BME280;41524;35.624;139.698;2023-02-08T12:30:18;101774.00;;;6.33;57.15
53659;BME280;41524;35.624;139.698;2023-02-08T12:35:33;101778.00;;;5.76;58.63
53659;BME280;41524;35.624;139.698;2023-02-08T12:40:26;101772.00;;;5.66;59.44
53659;BME280;41524;35.624;139.698;2023-02-08T12:45:39;101784.00;;;6.60;57.27
53659;BME280;41524;35.624;139.698;2023-02-08T12:50:29;101794.00;;;5.32;60.16
53659;BME280;41524;35.624;139.698;2023-02-08T12:55:18;101790.00;;;6.71;57.58
53659;BME280;41524;35.624;139.698;2023-02-08T13:00:19;101798.00;;;5.46;59.41
53659;BME280;41524;35.624;139.698;2023-02-08T13:05:16;101797.00;;;5.91;58.66
53659;BME280;41524;35.624;139.698;2023-02-08T13:10:19;101819.00;;;5.81;58.87
53659;BME280;41524;35.624;139.698;2023-02-08T13:15:24;101819.00;;;5.89;58.80
53659;BME280;41524;35.624;139.698;2023-02-08T13:20:27;101821.00;;;5.80;59.03
53659;BME280;41524;35.624;139.698;2023-02-08T13:25:20;101822.00;;;5.08;60.41
53659;BME280;41524;35.624;139.698;2023-02-08T13:30:20;101817.00;;;5.62;58.91
53659;BME280;41524;35.624;139.698;2023-02-08T13:35:15;101823.00;;;5.34;59.16
53659;BME280;41524;35.624;139.698;2023-02-08T13:40:20;101828.00;;;5.49;59.75
53659;BME280;41524;35.624;139.698;2023-02-08T13:45:24;101828.00;;;5.73;58.85
53659;BME280;41524;35.624;139.698;2023-02-08T13:50:42;101834.00;;;5.77;58.32
53659;BME280;41524;35.624;139.698;2023-02-08T13:55:55;101833.00;;;5.91;57.69
53659;BME280;41524;35.624;139.698;2023-02-08T14:00:23;101834.00;;;5.82;57.78
53659;BME280;41524;35.624;139.698;2023-02-08T14:05:46;101832.00;;;5.38;57.78
53659;BME280;41524;35.624;139.698;2023-02-08T14:10:21;101829.00;;;5.82;52.97
53659;BME280;41524;35.624;139.698;2023-02-08T14:15:34;101828.00;;;5.63;53.39
53659;BME280;41524;35.624;139.698;2023-02-08T14:20:20;101827.00;;;6.18;51.31
53659;BME280;41524;35.624;139.698;2023-02-08T14:25:18;101812.00;;;5.66;48.29
53659;BME280;41524;35.624;139.698;2023-02-08T14:30:23;101805.00;;;6.06;46.85
53659;BME280;41524;35.624;139.698;2023-02-08T14:35:20;101804.00;;;4.96;47.39
53659;BME280;41524;35.624;139.698;2023-02-08T14:40:50;101797.00;;;5.58;46.57
53659;BME280;41524;35.624;139.698;2023-02-08T14:45:27;101805.00;;;6.19;43.43
53659;BME280;41524;35.624;139.698;2023-02-08T14:50:16;101806.00;;;5.21;44.51
53659;BME280;41524;35.624;139.698;2023-02-08T14:55:17;101813.00;;;5.58;44.01
53659;BME280;41524;35.624;139.698;2023-02-08T15:00:20;101821.00;;;5.06;45.30
53659;BME280;41524;35.624;139.698;2023-02-08T15:05:23;101820.00;;;5.60;42.60
53659;BME280;41524;35.624;139.698;2023-02-08T15:10:14;101826.00;;;5.55;42.68
53659;BME280;41524;35.624;139.698;2023-02-08T15:15:23;101831.00;;;5.35;41.80
53659;BME280;41524;35.624;139.698;2023-02-08T15:20:19;101843.00;;;4.69;42.16
53659;BME280;41524;35.624;139.698;2023-02-08T15:25:24;101841.00;;;4.38;42.36
53659;BME280;41524;35.624;139.698;2023-02-08T15:30:24;101850.00;;;4.90;40.31
53659;BME280;41524;35.624;139.698;2023-02-08T15:35:18;101842.00;;;3.74;41.11
53659;BME280;41524;35.624;139.698;2023-02-08T15:45:22;101851.00;;;3.65;40.36
53659;BME280;41524;35.624;139.698;2023-02-08T15:50:18;101861.00;;;4.22;39.94
53659;BME280;41524;35.624;139.698;2023-02-08T15:55:16;101867.00;;;3.98;38.97
53659;BME280;41524;35.624;139.698;2023-02-08T16:00:31;101869.00;;;4.07;38.82
53659;BME280;41524;35.624;139.698;2023-02-08T16:05:19;101875.00;;;3.56;39.10
53659;BME280;41524;35.624;139.698;2023-02-08T16:10:24;101881.00;;;3.39;39.61
53659;BME280;41524;35.624;139.698;2023-02-08T16:15:40;101887.00;;;3.07;40.39
53659;BME280;41524;35.624;139.698;2023-02-08T16:20:34;101893.00;;;3.94;38.76
53659;BME280;41524;35.624;139.698;2023-02-08T16:25:46;101902.00;;;3.43;38.48
53659;BME280;41524;35.624;139.698;2023-02-08T16:30:18;101904.00;;;3.58;38.80
53659;BME280;41524;35.624;139.698;2023-02-08T16:35:14;101900.00;;;3.24;38.37
53659;BME280;41524;35.624;139.698;2023-02-08T16:40:43;101897.00;;;3.39;38.23
53659;BME280;41524;35.624;139.698;2023-02-08T16:45:16;101903.00;;;3.21;38.42
53659;BME280;41524;35.624;139.698;2023-02-08T16:50:13;101904.00;;;2.82;38.46
53659;BME280;41524;35.624;139.698;2023-02-08T16:55:18;101906.00;;;3.18;38.60
53659;BME280;41524;35.624;139.698;2023-02-08T17:00:17;101904.00;;;3.65;37.67
53659;BME280;41524;35.624;139.698;2023-02-08T17:05:10;101915.00;;;3.66;37.75
53659;BME280;41524;35.624;139.698;2023-02-08T17:10:19;101910.00;;;3.68;37.39
53659;BME280;41524;35.624;139.698;2023-02-08T17:15:11;101907.00;;;3.73;36.93
53659;BME280;41524;35.624;139.698;2023-02-08T17:20:21;101910.00;;;3.08;37.64
53659;BME280;41524;35.624;139.698;2023-02-08T17:25:13;101916.00;;;3.00;37.26
53659;BME280;41524;35.624;139.698;2023-02-08T17:30:19;101914.00;;;2.97;37.22
53659;BME280;41524;35.624;139.698;2023-02-08T17:35:15;101913.00;;;3.44;36.22
53659;BME280;41524;35.624;139.698;2023-02-08T17:40:11;101902.00;;;2.88;36.38
53659;BME280;41524;35.624;139.698;2023-02-08T17:45:15;101909.00;;;2.45;36.55
53659;BME280;41524;35.624;139.698;2023-02-08T17:50:13;101900.00;;;2.30;36.21
53659;BME280;41524;35.624;139.698;2023-02-08T17:55:16;101908.00;;;2.92;34.99
53659;BME280;41524;35.624;139.698;2023-02-08T18:00:13;101914.00;;;2.85;35.41
53659;BME280;41524;35.624;139.698;2023-02-08T18:05:10;101921.00;;;2.75;34.99
53659;BME280;41524;35.624;139.698;2023-02-08T18:10:12;101930.00;;;2.77;34.64
53659;BME280;41524;35.624;139.698;2023-02-08T18:15:13;101932.00;;;2.66;34.65
53659;BME280;41524;35.624;139.698;2023-02-08T18:20:13;101924.00;;;2.21;35.13
53659;BME280;41524;35.624;139.698;2023-02-08T18:25:14;101935.00;;;2.62;35.33
53659;BME280;41524;35.624;139.698;2023-02-08T18:30:12;101941.00;;;2.59;34.98
53659;BME280;41524;35.624;139.698;2023-02-08T18:35:11;101958.00;;;2.53;34.91
53659;BME280;41524;35.624;139.698;2023-02-08T18:40:17;101957.00;;;2.31;34.88
53659;BME280;41524;35.624;139.698;2023-02-08T18:45:12;101969.00;;;2.85;34.21
53659;BME280;41524;35.624;139.698;2023-02-08T18:50:12;101965.00;;;2.40;34.75
53659;BME280;41524;35.624;139.698;2023-02-08T18:55:10;101970.00;;;2.70;34.65
53659;BME280;41524;35.624;139.698;2023-02-08T19:00:12;101985.00;;;2.88;34.83
53659;BME280;41524;35.624;139.698;2023-02-08T19:05:12;101987.00;;;2.30;35.11
53659;BME280;41524;35.624;139.698;2023-02-08T19:10:10;101989.00;;;2.38;35.15
53659;BME280;41524;35.624;139.698;2023-02-08T19:15:11;101989.00;;;2.32;35.91
53659;BME280;41524;35.624;139.698;2023-02-08T19:20:12;101991.00;;;2.20;36.10
53659;BME280;41524;35.624;139.698;2023-02-08T19:25:12;102002.00;;;1.48;36.60
53659;BME280;41524;35.624;139.698;2023-02-08T19:30:14;102015.00;;;2.62;35.83
53659;BME280;41524;35.624;139.698;2023-02-08T19:35:11;102027.00;;;2.24;36.27
53659;BME280;41524;35.624;139.698;2023-02-08T19:40:12;102030.00;;;2.65;35.37
53659;BME280;41524;35.624;139.698;2023-02-08T19:45:11;102045.00;;;2.21;36.58
53659;BME280;41524;35.624;139.698;2023-02-08T19:50:11;102054.00;;;2.58;35.86
53659;BME280;41524;35.624;139.698;2023-02-08T19:55:15;102066.00;;;2.00;36.03
53659;BME280;41524;35.624;139.698;2023-02-08T20:00:18;102078.00;;;2.03;35.85
53659;BME280;41524;35.624;139.698;2023-02-08T20:05:11;102077.00;;;1.73;36.13
53659;BME280;41524;35.624;139.698;2023-02-08T20:10:11;102097.00;;;2.18;35.63
53659;BME280;41524;35.624;139.698;2023-02-08T20:15:15;102114.00;;;1.94;36.14
53659;BME280;41524;35.624;139.698;2023-02-08T20:20:11;102122.00;;;1.72;36.30
53659;BME280;41524;35.624;139.698;2023-02-08T20:25:15;102129.00;;;1.68;36.17
53659;BME280;41524;35.624;139.698;2023-02-08T20:30:20;102129.00;;;1.69;35.83
53659;BME280;41524;35.624;139.698;2023-02-08T20:35:10;102143.00;;;1.95;35.29
53659;BME280;41524;35.624;139.698;2023-02-08T20:40:13;102143.00;;;1.69;36.46
53659;BME280;41524;35.624;139.698;2023-02-08T20:45:11;102157.00;;;1.83;35.54
53659;BME280;41524;35.624;139.698;2023-02-08T20:50:18;102157.00;;;1.66;35.62
53659;BME280;41524;35.624;139.698;2023-02-08T20:55:12;102171.00;;;2.23;34.71
53659;BME280;41524;35.624;139.698;2023-02-08T21:00:12;102170.00;;;1.89;34.80
53659;BME280;41524;35.624;139.698;2023-02-08T21:05:15;102163.00;;;1.96;34.74
53659;BME280;41524;35.624;139.698;2023-02-08T21:10:11;102157.00;;;2.25;34.18
53659;BME280;41524;35.624;139.698;2023-02-08T21:15:12;102178.00;;;2.28;34.24
53659;BME280;41524;35.624;139.698;2023-02-08T21:20:20;102178.00;;;2.04;34.01
53659;BME280;41524;35.624;139.698;2023-02-08T21:25:11;102178.00;;;1.86;34.30
53659;BME280;41524;35.624;139.698;2023-02-08T21:30:16;102179.00;;;1.55;34.06
53659;BME280;41524;35.624;139.698;2023-02-08T21:35:25;102207.00;;;1.77;34.31
53659;BME280;41524;35.624;139.698;2023-02-08T21:40:15;102219.00;;;2.47;32.54
53659;BME280;41524;35.624;139.698;2023-02-08T21:45:12;102234.00;;;1.63;32.83
53659;BME280;41524;35.624;139.698;2023-02-08T21:50:15;102252.00;;;2.07;33.38
53659;BME280;41524;35.624;139.698;2023-02-08T21:55:17;102254.00;;;1.35;34.14
53659;BME280;41524;35.624;139.698;2023-02-08T22:00:16;102256.00;;;2.66;32.50
53659;BME280;41524;35.624;139.698;2023-02-08T22:05:15;102267.00;;;2.07;32.11
53659;BME280;41524;35.624;139.698;2023-02-08T22:10:12;102275.00;;;2.47;32.11
53659;BME280;41524;35.624;139.698;2023-02-08T22:15:14;102289.00;;;2.90;31.64
53659;BME280;41524;35.624;139.698;2023-02-08T22:20:13;102300.00;;;2.57;32.52
53659;BME280;41524;35.624;139.698;2023-02-08T22:25:11;102304.00;;;2.43;31.87
53659;BME280;41524;35.624;139.698;2023-02-08T22:30:13;102306.00;;;3.87;35.78
53659;BME280;41524;35.624;139.698;2023-02-08T22:35:12;102309.00;;;2.75;31.95
53659;BME280;41524;35.624;139.698;2023-02-08T22:40:11;102313.00;;;3.53;31.17
53659;BME280;41524;35.624;139.698;2023-02-08T22:45:15;102328.00;;;3.56;31.33
53659;BME280;41524;35.624;139.698;2023-02-08T22:50:15;102335.00;;;5.02;31.91
53659;BME280;41524;35.624;139.698;2023-02-08T22:55:16;102348.00;;;4.57;32.29
53659;BME280;41524;35.624;139.698;2023-02-08T23:00:17;102362.00;;;4.41;32.27
53659;BME280;41524;35.624;139.698;2023-02-08T23:05:15;102366.00;;;4.09;31.79
53659;BME280;41524;35.624;139.698;2023-02-08T23:10:11;102372.00;;;4.35;30.73
53659;BME280;41524;35.624;139.698;2023-02-08T23:15:12;102373.00;;;5.03;31.76
53659;BME280;41524;35.624;139.698;2023-02-08T23:20:16;102367.00;;;4.78;30.80
53659;BME280;41524;35.624;139.698;2023-02-08T23:25:11;102372.00;;;6.71;28.97
53659;BME280;41524;35.624;139.698;2023-02-08T23:30:12;102377.00;;;8.89;26.07
53659;BME280;41524;35.624;139.698;2023-02-08T23:35:12;102388.00;;;11.86;23.91
53659;BME280;41524;35.624;139.698;2023-02-08T23:40:12;102387.00;;;14.44;20.07
53659;BME280;41524;35.624;139.698;2023-02-08T23:45:19;102394.00;;;10.90;21.72
53659;BME280;41524;35.624;139.698;2023-02-08T23:50:18;102391.00;;;12.98;19.56
53659;BME280;41524;35.624;139.698;2023-02-08T23:55:11;102398.00;;;13.90;19.11
